logo
Search for airport 
image banner adimage banner adimage banner ad
image banner ad

ETNG - Geilenkirchen

Located in Geilenkirchen, Germany

ICAO - ETNG, IATA - GKE

Data provided by Airmate  

General information

Coordinates: N50°57'39" E6°2'30"
Elevation is 292 feet MSL.
Magnetic variation is 2.78° East
View others Airports in North Rhine-Westphalia

Operational data

Special qualification required
Current time UTC:
Current local time:
Weather
METAR: ETNG 251450Z 25005KT CAVOK 25/13 Q1012 NOSIG
TAF: TAF ETNG 251400Z 2515/2606 22005KT CAVOK PROB30 TEMPO 2518/2601 -RA -SHRA SCT070CB BECMG 2522/2601 -RA PROB30 TEMPO 2601/2606 4000 DZRA BKN012
View NOTAMs / SUP AIP / TFR affecting this airport [VIEW]
Communications frequencies: [VIEW]

Runways:

RWY identifierQFULength (ft)Width (ft)SurfaceLDA (ft)
0991°10002148ASPH9515
27271°10002148ASPH9516

Airport contact information

Address: Geilenkirchen Germany

Satellite view of ETNG